Time;durP1;ratioP1;P1;durP2;ratioP2;P2;SDS_P1;SDS_P2;PMS_P1;PMS_P2;Temp;Humidity;BMP_temperature;BMP_pressure;BME280_temperature;BME280_humidity;BME280_pressure;Samples;Min_cycle;Max_cycle;Signal;HPM_P1;HPM_P2
2023/03/21 00:01:35;;;;;;;;;;;;;;;2.86;100.00;99794.59;5093231;28;835;-67
2023/03/21 00:04:02;;;;;;;;;;;;;;;2.87;100.00;99796.16;5092926;28;836;-67
2023/03/21 00:06:28;;;;;;;;;;;;;;;2.81;100.00;99789.38;5092772;28;815;-66
2023/03/21 00:08:54;;;;;;;;;;;;;;;2.75;100.00;99794.31;5093012;28;931;-65
2023/03/21 00:11:21;;;;;;;;;;;;;;;2.56;100.00;99795.00;5092631;28;1266;-65
2023/03/21 00:13:48;;;;;;;;;;;;;;;2.38;100.00;99799.16;5092707;28;855;-65
2023/03/21 00:16:16;;;;;;;;;;;;;;;2.32;100.00;99801.31;5092682;28;1967;-65
2023/03/21 00:18:45;;;;;;;;;;;;;;;2.21;100.00;99794.78;5092593;28;894;-66
2023/03/21 00:21:15;;;;;;;;;;;;;;;2.15;100.00;99796.94;5092404;28;1045;-65
2023/03/21 00:23:42;;;;;;;;;;;;;;;2.15;100.00;99796.94;5092560;28;886;-65
2023/03/21 00:26:08;;;;;;;;;;;;;;;2.20;100.00;99788.53;5092693;28;875;-65
2023/03/21 00:28:42;;;;;;;;;;;;;;;2.32;100.00;99784.16;5074166;28;1328;-67
2023/03/21 00:31:09;;;;;;;;;;;;;;;2.29;100.00;99793.84;5092430;28;894;-68
2023/03/21 00:33:37;;;;;;;;;;;;;;;2.30;100.00;99787.22;5092406;28;879;-67
2023/03/21 00:36:05;;;;;;;;;;;;;;;2.34;100.00;99792.78;5092271;28;1909;-68
2023/03/21 00:38:32;;;;;;;;;;;;;;;2.34;100.00;99793.59;5074092;28;1184;-67
2023/03/21 00:40:59;;;;;;;;;;;;;;;2.34;100.00;99792.78;5092238;28;840;-67
2023/03/21 00:43:30;;;;;;;;;;;;;;;2.31;100.00;99793.50;5092189;28;886;-67
2023/03/21 00:45:57;;;;;;;;;;;;;;;2.30;100.00;99794.63;5092165;28;879;-67
2023/03/21 00:48:24;;;;;;;;;;;;;;;2.32;100.00;99795.06;5092103;28;898;-66
2023/03/21 00:50:53;;;;;;;;;;;;;;;2.33;100.00;99791.22;5092030;28;824;-65
2023/03/21 00:53:19;;;;;;;;;;;;;;;2.36;100.00;99794.03;5092265;28;871;-65
2023/03/21 00:55:46;;;;;;;;;;;;;;;2.37;100.00;99792.09;5091815;28;1889;-66
2023/03/21 00:58:13;;;;;;;;;;;;;;;2.25;100.00;99791.00;5092011;28;886;-67
2023/03/21 01:00:40;;;;;;;;;;;;;;;2.11;100.00;99787.88;5092002;28;875;-66
2023/03/21 01:03:07;;;;;;;;;;;;;;;2.05;100.00;99786.53;5091858;28;827;-66
2023/03/21 01:08:24;;;;;;;;;;;;;;;2.13;100.00;99782.06;5091904;28;1132;-65
2023/03/21 01:10:51;;;;;;;;;;;;;;;2.24;100.00;99774.97;5091553;28;1272;-65
2023/03/21 01:13:19;;;;;;;;;;;;;;;2.20;100.00;99772.19;5091786;28;823;-65
2023/03/21 01:15:47;;;;;;;;;;;;;;;2.06;100.00;99769.03;5091674;28;2017;-66
2023/03/21 01:18:17;;;;;;;;;;;;;;;1.97;100.00;99779.28;5091668;28;921;-65
2023/03/21 01:20:44;;;;;;;;;;;;;;;1.84;100.00;99779.31;5091629;28;828;-65
2023/03/21 01:23:11;;;;;;;;;;;;;;;1.78;100.00;99774.44;5091877;28;854;-66
2023/03/21 01:25:38;;;;;;;;;;;;;;;1.72;100.00;99773.09;5091837;28;823;-65
2023/03/21 01:28:05;;;;;;;;;;;;;;;1.67;100.00;99776.84;5091561;28;837;-65
2023/03/21 01:30:31;;;;;;;;;;;;;;;1.59;100.00;99759.50;5073428;28;1310;-64
2023/03/21 01:32:58;;;;;;;;;;;;;;;1.50;100.00;99753.38;5077693;28;1181;-65
2023/03/21 01:35:24;;;;;;;;;;;;;;;1.42;100.00;99746.13;5098163;28;1894;-64
2023/03/21 01:37:51;;;;;;;;;;;;;;;1.32;100.00;99741.13;5098288;28;879;-66
2023/03/21 01:40:19;;;;;;;;;;;;;;;1.23;100.00;99733.88;5098211;28;847;-64
2023/03/21 01:42:46;;;;;;;;;;;;;;;1.20;100.00;99731.84;5098146;28;914;-65
2023/03/21 01:45:31;;;;;;;;;;;;;;;1.22;100.00;99728.78;5098121;28;835;-65
2023/03/21 01:47:57;;;;;;;;;;;;;;;1.30;100.00;99735.22;5098140;28;843;-66
2023/03/21 01:50:25;;;;;;;;;;;;;;;1.34;100.00;99731.47;5098190;28;824;-65
2023/03/21 01:52:51;;;;;;;;;;;;;;;1.45;100.00;99731.03;5098007;28;889;-65
2023/03/21 01:55:18;;;;;;;;;;;;;;;1.52;100.00;99737.50;5098074;28;1890;-64
2023/03/21 01:57:51;;;;;;;;;;;;;;;1.59;100.00;99734.97;5097990;28;820;-65
2023/03/21 02:00:21;;;;;;;;;;;;;;;1.73;100.00;99737.34;5098037;28;827;-65
2023/03/21 02:02:54;;;;;;;;;;;;;;;1.91;100.00;99728.88;5098262;28;910;-64
2023/03/21 02:05:39;;;;;;;;;;;;;;;2.12;100.00;99725.97;5098009;28;953;-64
2023/03/21 02:08:05;;;;;;;;;;;;;;;2.31;100.00;99715.19;5098055;28;1034;-65
2023/03/21 02:10:32;;;;;;;;;;;;;;;2.51;100.00;99721.56;5097734;28;1602;-65
2023/03/21 02:13:08;;;;;;;;;;;;;;;2.69;100.00;99715.75;5098129;28;895;-67
2023/03/21 02:15:36;;;;;;;;;;;;;;;2.86;100.00;99723.63;5097794;28;1972;-65
2023/03/21 02:18:16;;;;;;;;;;;;;;;2.99;100.00;99721.59;5098108;28;875;-64
2023/03/21 02:21:01;;;;;;;;;;;;;;;3.08;100.00;99729.59;5079657;28;1289;-65
2023/03/21 02:23:33;;;;;;;;;;;;;;;3.13;100.00;99738.31;5098324;28;902;-65
2023/03/21 02:26:18;;;;;;;;;;;;;;;3.21;100.00;99736.53;5097868;28;871;-67
2023/03/21 02:28:54;;;;;;;;;;;;;;;3.27;100.00;99732.41;5097824;28;816;-67
2023/03/21 02:31:32;;;;;;;;;;;;;;;3.33;100.00;99738.34;5097740;28;820;-65
2023/03/21 02:34:17;;;;;;;;;;;;;;;3.40;100.00;99735.81;5097669;28;937;-66
2023/03/21 02:37:05;;;;;;;;;;;;;;;3.53;100.00;99740.00;5098471;28;1890;-66
2023/03/21 02:39:53;;;;;;;;;;;;;;;3.59;100.00;99732.34;5097953;28;839;-65
2023/03/21 02:42:24;;;;;;;;;;;;;;;3.65;100.00;99737.16;5098001;28;804;-65
2023/03/21 02:45:08;;;;;;;;;;;;;;;3.76;100.00;99731.91;5093761;28;819;-65
2023/03/21 02:47:39;;;;;;;;;;;;;;;3.91;100.00;99733.00;5094434;28;883;-67
2023/03/21 02:50:17;;;;;;;;;;;;;;;4.00;100.00;99735.53;5094743;28;890;-67
2023/03/21 02:52:45;;;;;;;;;;;;;;;4.05;100.00;99735.22;5094202;28;911;-66
2023/03/21 02:55:26;;;;;;;;;;;;;;;4.11;100.00;99739.25;5094233;28;835;-65
2023/03/21 02:57:54;;;;;;;;;;;;;;;4.15;100.00;99742.09;5094397;28;896;-66
2023/03/21 03:00:23;;;;;;;;;;;;;;;4.19;100.00;99732.78;5094200;28;994;-65
2023/03/21 03:02:50;;;;;;;;;;;;;;;4.26;100.00;99746.59;5094121;28;886;-68
2023/03/21 03:05:26;;;;;;;;;;;;;;;4.29;100.00;99745.09;5094107;28;827;-66
2023/03/21 03:08:11;;;;;;;;;;;;;;;4.33;100.00;99740.47;5094673;28;967;-66
2023/03/21 03:10:58;;;;;;;;;;;;;;;4.34;100.00;99736.59;5093699;28;1433;-66
2023/03/21 03:13:34;;;;;;;;;;;;;;;4.34;100.00;99730.34;5093874;28;827;-65
2023/03/21 03:16:04;;;;;;;;;;;;;;;4.35;100.00;99720.97;5093849;28;1961;-65
2023/03/21 03:18:30;;;;;;;;;;;;;;;4.37;100.00;99724.13;5093891;28;831;-66
2023/03/21 03:21:00;;;;;;;;;;;;;;;4.38;100.00;99720.25;5093814;28;879;-65
2023/03/21 03:23:32;;;;;;;;;;;;;;;4.39;100.00;99713.59;5093626;28;859;-65
2023/03/21 03:26:12;;;;;;;;;;;;;;;4.35;100.00;99710.00;5093721;28;891;-65
2023/03/21 03:28:42;;;;;;;;;;;;;;;4.33;100.00;99702.16;5093697;28;815;-64
2023/03/21 03:31:12;;;;;;;;;;;;;;;4.32;100.00;99711.53;5093525;28;882;-67
2023/03/21 03:33:42;;;;;;;;;;;;;;;4.36;100.00;99708.88;5093515;28;831;-67
2023/03/21 03:36:10;;;;;;;;;;;;;;;4.40;100.00;99707.00;5093591;28;1881;-66
2023/03/21 03:38:37;;;;;;;;;;;;;;;4.41;100.00;99708.56;5093463;28;943;-64
2023/03/21 03:41:09;;;;;;;;;;;;;;;4.44;100.00;99707.84;5093422;28;879;-67
2023/03/21 03:43:45;;;;;;;;;;;;;;;4.46;100.00;99713.75;5093691;28;843;-65
2023/03/21 03:46:24;;;;;;;;;;;;;;;4.47;100.00;99707.13;5093248;28;849;-67
2023/03/21 03:48:54;;;;;;;;;;;;;;;4.49;100.00;99710.28;5093443;28;886;-67
2023/03/21 03:51:43;;;;;;;;;;;;;;;4.51;100.00;99697.03;5093363;28;922;-66
2023/03/21 03:54:14;;;;;;;;;;;;;;;4.56;100.00;99699.44;5093104;28;819;-67
2023/03/21 03:56:41;;;;;;;;;;;;;;;4.62;100.00;99700.72;5092782;28;1953;-65
2023/03/21 03:59:07;;;;;;;;;;;;;;;4.66;100.00;99692.59;5093059;28;839;-64
2023/03/21 04:01:33;;;;;;;;;;;;;;;4.68;100.00;99696.53;5092931;28;832;-63
2023/03/21 04:04:00;;;;;;;;;;;;;;;4.72;100.00;99693.09;5092920;28;844;-63
2023/03/21 04:06:27;;;;;;;;;;;;;;;4.77;100.00;99693.56;5092846;28;942;-66
2023/03/21 04:08:55;;;;;;;;;;;;;;;4.83;100.00;99700.31;5093077;28;1021;-66
2023/03/21 04:11:22;;;;;;;;;;;;;;;4.89;100.00;99693.38;5092581;28;1281;-68
2023/03/21 04:13:48;;;;;;;;;;;;;;;4.96;100.00;99700.91;5092821;28;824;-67
2023/03/21 04:16:15;;;;;;;;;;;;;;;5.01;100.00;99702.53;5092611;28;1959;-68
2023/03/21 04:18:41;;;;;;;;;;;;;;;5.04;100.00;99701.81;5092676;28;854;-67
2023/03/21 04:21:09;;;;;;;;;;;;;;;5.07;100.00;99704.59;5092456;28;943;-67
2023/03/21 04:23:36;;;;;;;;;;;;;;;5.13;100.00;99693.34;5092568;28;958;-67
2023/03/21 04:26:04;;;;;;;;;;;;;;;5.21;100.00;99706.78;5092562;28;800;-66
2023/03/21 04:28:32;;;;;;;;;;;;;;;5.35;100.00;99697.97;5092535;28;875;-66
2023/03/21 04:30:58;;;;;;;;;;;;;;;5.48;100.00;99701.28;5092355;28;918;-66
2023/03/21 04:33:25;;;;;;;;;;;;;;;5.57;100.00;99707.31;5092435;28;883;-67
2023/03/21 04:35:55;;;;;;;;;;;;;;;5.67;100.00;99700.38;5092275;28;1935;-67
2023/03/21 04:38:22;;;;;;;;;;;;;;;5.78;100.00;99708.72;5092375;28;937;-66
2023/03/21 04:40:48;;;;;;;;;;;;;;;5.87;100.00;99720.22;5092255;28;847;-66
2023/03/21 04:43:15;;;;;;;;;;;;;;;5.93;100.00;99714.03;5092348;28;816;-66
2023/03/21 04:45:41;;;;;;;;;;;;;;;5.96;100.00;99715.28;5092171;28;847;-66
2023/03/21 04:48:08;;;;;;;;;;;;;;;5.97;100.00;99705.09;5092126;28;973;-67
2023/03/21 04:50:35;;;;;;;;;;;;;;;5.98;100.00;99710.19;5092396;28;894;-67
2023/03/21 04:53:02;;;;;;;;;;;;;;;5.99;100.00;99708.25;5092049;28;839;-66
2023/03/21 04:55:30;;;;;;;;;;;;;;;5.96;100.00;99718.00;5091922;28;1925;-66
2023/03/21 04:57:57;;;;;;;;;;;;;;;6.04;100.00;99714.19;5092031;28;847;-66
2023/03/21 05:00:24;;;;;;;;;;;;;;;6.11;100.00;99728.00;5092002;28;831;-66
2023/03/21 05:02:51;;;;;;;;;;;;;;;6.13;100.00;99720.19;5073861;28;1459;-67
2023/03/21 05:05:17;;;;;;;;;;;;;;;6.15;100.00;99716.28;5091857;28;859;-66
2023/03/21 05:07:44;;;;;;;;;;;;;;;6.13;100.00;99716.66;5091111;28;1105;-67
2023/03/21 05:10:11;;;;;;;;;;;;;;;6.15;100.00;99714.31;5091545;28;1411;-66
2023/03/21 05:12:38;;;;;;;;;;;;;;;6.20;100.00;99722.22;5091771;28;914;-67
2023/03/21 05:15:06;;;;;;;;;;;;;;;6.25;100.00;99724.63;5091762;28;907;-67
2023/03/21 05:17:32;;;;;;;;;;;;;;;6.28;100.00;99726.63;5091668;28;1973;-67
2023/03/21 05:19:58;;;;;;;;;;;;;;;6.36;100.00;99726.69;5091605;28;863;-67
2023/03/21 05:22:27;;;;;;;;;;;;;;;6.40;100.00;99722.03;5091676;28;836;-67
2023/03/21 05:24:54;;;;;;;;;;;;;;;6.40;100.00;99727.53;5091707;28;859;-66
2023/03/21 05:27:34;;;;;;;;;;;;;;;6.47;100.00;99719.38;5091599;28;867;-67
2023/03/21 05:30:01;;;;;;;;;;;;;;;6.51;100.00;99720.22;5091863;28;1060;-66
2023/03/21 05:32:28;;;;;;;;;;;;;;;6.61;100.00;99718.72;5091771;28;890;-66
2023/03/21 05:34:55;;;;;;;;;;;;;;;6.69;100.00;99721.16;5091746;28;950;-66
2023/03/21 05:37:22;;;;;;;;;;;;;;;6.78;100.00;99725.53;5091707;28;1960;-67
2023/03/21 05:39:48;;;;;;;;;;;;;;;6.86;100.00;99724.44;5091641;28;922;-67
2023/03/21 05:42:17;;;;;;;;;;;;;;;6.91;100.00;99724.09;5091757;28;815;-68
2023/03/21 05:44:45;;;;;;;;;;;;;;;7.04;100.00;99725.41;5073324;28;1180;-65
2023/03/21 05:47:14;;;;;;;;;;;;;;;7.03;100.00;99734.78;5091408;28;866;-65
2023/03/21 05:49:41;;;;;;;;;;;;;;;7.01;100.00;99744.59;5091363;28;823;-66
2023/03/21 05:52:07;;;;;;;;;;;;;;;7.02;100.00;99746.97;5091341;28;938;-65
2023/03/21 05:54:34;;;;;;;;;;;;;;;7.12;100.00;99750.97;5091352;28;855;-66
2023/03/21 05:57:01;;;;;;;;;;;;;;;7.19;100.00;99752.97;5091259;28;1885;-65
2023/03/21 05:59:28;;;;;;;;;;;;;;;7.27;100.00;99751.88;5091350;28;871;-65
2023/03/21 06:01:54;;;;;;;;;;;;;;;7.39;100.00;99746.06;5091240;28;906;-66
2023/03/21 06:04:21;;;;;;;;;;;;;;;7.58;100.00;99736.75;5073223;28;1278;-66
2023/03/21 06:06:49;;;;;;;;;;;;;;;7.83;100.00;99727.84;5091136;28;854;-67
2023/03/21 06:09:16;;;;;;;;;;;;;;;7.98;100.00;99722.03;5091286;28;1284;-66
2023/03/21 06:11:46;;;;;;;;;;;;;;;8.10;100.00;99714.59;5091429;28;851;-67
2023/03/21 06:14:11;;;;;;;;;;;;;;;8.23;100.00;99713.06;5091136;28;859;-67
2023/03/21 06:16:38;;;;;;;;;;;;;;;8.37;100.00;99715.88;5091224;28;1918;-67
2023/03/21 06:19:05;;;;;;;;;;;;;;;8.54;100.00;99725.38;5093309;28;887;-65
2023/03/21 06:21:31;;;;;;;;;;;;;;;8.67;100.00;99728.56;5094960;28;867;-67
2023/03/21 06:23:58;;;;;;;;;;;;;;;9.28;100.00;99738.81;5094919;28;859;-67
2023/03/21 06:26:25;;;;;;;;;;;;;;;9.60;100.00;99745.09;5094815;28;827;-67
2023/03/21 06:28:52;;;;;;;;;;;;;;;9.60;100.00;99741.53;5094894;28;792;-67
2023/03/21 06:31:19;;;;;;;;;;;;;;;9.53;100.00;99734.06;5094730;28;820;-66
2023/03/21 06:33:46;;;;;;;;;;;;;;;9.52;100.00;99731.72;5094737;28;969;-66
2023/03/21 06:36:12;;;;;;;;;;;;;;;9.89;100.00;99733.19;5094507;28;1889;-66
2023/03/21 06:38:39;;;;;;;;;;;;;;;10.10;100.00;99726.81;5094707;28;839;-67
2023/03/21 06:41:06;;;;;;;;;;;;;;;10.38;100.00;99725.91;5094620;28;886;-67
2023/03/21 06:43:33;;;;;;;;;;;;;;;10.64;100.00;99721.78;5094593;28;883;-65
2023/03/21 06:46:00;;;;;;;;;;;;;;;10.66;100.00;99724.94;5094477;28;867;-65
2023/03/21 06:48:27;;;;;;;;;;;;;;;10.74;100.00;99720.16;5094403;28;839;-67
2023/03/21 06:50:55;;;;;;;;;;;;;;;10.89;100.00;99720.84;5094716;28;807;-67
2023/03/21 06:53:28;;;;;;;;;;;;;;;10.90;100.00;99730.69;5094382;28;835;-66
2023/03/21 06:55:55;;;;;;;;;;;;;;;10.78;100.00;99734.75;5094273;28;1950;-67
2023/03/21 06:58:22;;;;;;;;;;;;;;;10.75;100.00;99733.59;5094363;28;848;-66
2023/03/21 07:00:49;;;;;;;;;;;;;;;10.82;100.00;99733.53;5094245;28;835;-66
2023/03/21 07:03:15;;;;;;;;;;;;;;;11.09;100.00;99735.69;5094113;28;875;-67
2023/03/21 07:05:42;;;;;;;;;;;;;;;11.40;100.00;99735.84;5094108;28;867;-67
2023/03/21 07:08:12;;;;;;;;;;;;;;;12.10;100.00;99729.97;5094036;28;929;-66
2023/03/21 07:11:06;;;;;;;;;;;;;;;12.69;100.00;99737.09;5093764;28;1283;-66
2023/03/21 07:13:33;;;;;;;;;;;;;;;13.10;100.00;99738.06;5093955;28;835;-66
2023/03/21 07:15:59;;;;;;;;;;;;;;;13.02;100.00;99740.16;5093836;28;1968;-67
2023/03/21 07:18:26;;;;;;;;;;;;;;;12.92;100.00;99728.03;5093701;28;832;-67
2023/03/21 07:20:52;;;;;;;;;;;;;;;13.24;100.00;99729.50;5093845;28;838;-67
2023/03/21 07:23:20;;;;;;;;;;;;;;;13.33;100.00;99734.53;5093722;28;899;-67
2023/03/21 07:25:47;;;;;;;;;;;;;;;13.54;100.00;99728.59;5093852;28;914;-67
2023/03/21 07:28:14;;;;;;;;;;;;;;;14.49;100.00;99732.66;5093628;28;902;-67
2023/03/21 07:30:41;;;;;;;;;;;;;;;15.60;100.00;99728.44;5092939;28;898;-68
2023/03/21 07:33:07;;;;;;;;;;;;;;;16.41;100.00;99723.78;5093795;28;859;-67
2023/03/21 07:35:35;;;;;;;;;;;;;;;16.21;100.00;99715.59;5093527;28;1890;-68
2023/03/21 07:38:01;;;;;;;;;;;;;;;15.74;100.00;99722.50;5093477;28;835;-68
2023/03/21 07:41:00;;;;;;;;;;;;;;;16.04;100.00;99721.25;5093375;28;851;-68
2023/03/21 07:43:27;;;;;;;;;;;;;;;16.60;100.00;99708.84;5093634;28;891;-68
2023/03/21 07:45:57;;;;;;;;;;;;;;;17.20;93.87;99707.34;5093572;28;870;-69
2023/03/21 07:48:24;;;;;;;;;;;;;;;17.43;93.05;99708.97;5093216;28;879;-70
2023/03/21 07:50:51;;;;;;;;;;;;;;;16.69;89.97;99703.38;5093277;28;844;-68
2023/03/21 07:53:18;;;;;;;;;;;;;;;16.36;92.77;99708.38;5093306;28;891;-68
2023/03/21 07:55:48;;;;;;;;;;;;;;;15.82;93.72;99717.50;5093065;28;1956;-68
2023/03/21 07:58:14;;;;;;;;;;;;;;;15.42;95.70;99717.75;5093052;28;891;-68
2023/03/21 08:00:41;;;;;;;;;;;;;;;14.81;98.26;99711.69;5093125;28;795;-68
2023/03/21 08:03:08;;;;;;;;;;;;;;;14.94;100.00;99716.59;5092894;28;923;-69
2023/03/21 08:08:38;;;;;;;;;;;;;;;15.86;95.18;99707.81;5092878;28;1327;-69
2023/03/21 08:14:07;;;;;;;;;;;;;;;16.15;92.58;99698.63;5092665;28;1117;-69
2023/03/21 08:16:34;;;;;;;;;;;;;;;16.28;93.45;99702.25;5092517;28;1972;-69
2023/03/21 08:19:01;;;;;;;;;;;;;;;16.18;92.37;99699.78;5092724;28;855;-69
2023/03/21 08:21:27;;;;;;;;;;;;;;;15.89;92.70;99698.56;5074423;28;1299;-68
2023/03/21 08:26:57;;;;;;;;;;;;;;;16.21;91.39;99702.44;5092611;28;666;-69
2023/03/21 08:29:23;;;;;;;;;;;;;;;16.33;91.88;99700.91;5092503;28;871;-69
2023/03/21 08:31:50;;;;;;;;;;;;;;;16.47;91.18;99708.03;5092465;28;843;-69
2023/03/21 08:34:18;;;;;;;;;;;;;;;16.41;90.20;99707.03;5092428;28;855;-69
2023/03/21 08:36:45;;;;;;;;;;;;;;;16.48;89.46;99710.41;5092358;28;1925;-70
2023/03/21 08:39:15;;;;;;;;;;;;;;;16.65;91.21;99711.06;5092296;28;874;-68
2023/03/21 08:41:42;;;;;;;;;;;;;;;17.11;89.94;99710.84;5091367;28;906;-68
2023/03/21 08:44:09;;;;;;;;;;;;;;;17.06;86.16;99706.59;5092191;28;839;-67
2023/03/21 08:46:41;;;;;;;;;;;;;;;16.81;88.87;99715.00;5092078;28;859;-68
2023/03/21 08:49:07;;;;;;;;;;;;;;;17.00;88.39;99716.78;5073902;28;1232;-68
2023/03/21 08:51:32;;;;;;;;;;;;;;;17.26;85.07;99719.50;5092054;28;971;-69
2023/03/21 08:53:59;;;;;;;;;;;;;;;17.58;84.56;99712.84;5092024;28;1058;-68
2023/03/21 08:56:26;;;;;;;;;;;;;;;17.68;84.37;99714.47;5091880;28;1948;-65
2023/03/21 08:59:02;;;;;;;;;;;;;;;18.02;81.62;99710.09;5073797;28;1279;-66
2023/03/21 09:01:29;;;;;;;;;;;;;;;17.78;81.12;99711.75;5091922;28;887;-67
2023/03/21 09:03:56;;;;;;;;;;;;;;;17.92;82.97;99709.25;5091924;28;1031;-68
2023/03/21 09:06:23;;;;;;;;;;;;;;;18.40;82.61;99714.66;5091908;28;820;-68
2023/03/21 09:08:52;;;;;;;;;;;;;;;18.36;80.76;99711.22;5092044;28;984;-67
2023/03/21 09:11:19;;;;;;;;;;;;;;;17.75;81.96;99717.03;5091474;28;1494;-65
2023/03/21 09:13:45;;;;;;;;;;;;;;;17.46;83.88;99708.09;5091733;28;895;-68
2023/03/21 09:16:12;;;;;;;;;;;;;;;17.33;86.24;99705.31;5091581;28;1917;-68
2023/03/21 09:18:44;;;;;;;;;;;;;;;16.93;85.30;99706.63;5091713;28;886;-68
2023/03/21 09:21:12;;;;;;;;;;;;;;;16.20;87.68;99700.88;5091720;28;895;-68
2023/03/21 09:23:39;;;;;;;;;;;;;;;15.46;92.26;99707.31;5091557;28;922;-69
2023/03/21 09:26:06;;;;;;;;;;;;;;;15.15;94.37;99698.53;5091715;28;839;-69
2023/03/21 09:28:34;;;;;;;;;;;;;;;15.00;95.74;99698.13;5073474;28;1271;-68
2023/03/21 09:31:01;;;;;;;;;;;;;;;15.31;96.50;99696.53;5091537;28;918;-68
2023/03/21 09:33:28;;;;;;;;;;;;;;;15.52;96.22;99708.34;5091592;28;895;-68
2023/03/21 09:35:55;;;;;;;;;;;;;;;15.27;97.94;99695.06;5091446;28;1955;-68
2023/03/21 09:38:26;;;;;;;;;;;;;;;15.44;98.63;99693.03;5091500;28;907;-68
2023/03/21 10:09:23;;;;;;;;;;;;;;;18.32;85.66;99668.59;5945876;22;1701;-56
2023/03/21 10:11:55;;;;;;;;;;;;;;;18.21;83.90;99671.06;5055005;28;897;-56
2023/03/21 10:14:24;;;;;;;;;;;;;;;18.04;84.17;99674.06;5054922;28;870;-56
2023/03/21 10:17:09;;;;;;;;;;;;;;;17.90;84.30;99666.19;5054762;28;1977;-56
2023/03/21 10:19:35;;;;;;;;;;;;;;;18.21;84.45;99662.66;5054786;28;839;-56
2023/03/21 10:22:02;;;;;;;;;;;;;;;18.57;84.20;99668.41;5054786;28;870;-56
2023/03/21 10:24:31;;;;;;;;;;;;;;;19.05;82.48;99667.31;5054680;28;807;-56
2023/03/21 10:26:58;;;;;;;;;;;;;;;19.05;82.20;99662.47;5054669;28;831;-56
2023/03/21 10:29:28;;;;;;;;;;;;;;;18.81;81.90;99658.72;5054680;28;815;-56
2023/03/21 10:31:57;;;;;;;;;;;;;;;19.00;81.19;99659.53;5054567;28;811;-56
2023/03/21 10:34:37;;;;;;;;;;;;;;;18.91;81.40;99663.88;5054552;28;831;-56
2023/03/21 10:37:04;;;;;;;;;;;;;;;18.99;80.43;99653.16;5054400;28;1877;-56
2023/03/21 10:39:39;;;;;;;;;;;;;;;18.99;80.05;99653.16;5054315;28;887;-56
2023/03/21 10:42:09;;;;;;;;;;;;;;;18.76;80.97;99655.25;5054348;28;902;-56
2023/03/21 10:44:35;;;;;;;;;;;;;;;18.54;82.34;99646.16;5054639;28;823;-56
2023/03/21 10:47:07;;;;;;;;;;;;;;;18.81;81.63;99645.50;5054274;28;792;-56
2023/03/21 10:49:35;;;;;;;;;;;;;;;18.98;81.04;99643.19;5053104;28;1271;-56
2023/03/21 10:52:07;;;;;;;;;;;;;;;19.03;80.74;99636.19;5054217;28;800;-56
2023/03/21 10:54:34;;;;;;;;;;;;;;;19.09;80.37;99628.72;5054124;28;828;-56
2023/03/21 10:57:14;;;;;;;;;;;;;;;19.15;80.76;99629.69;5054084;28;1882;-56
2023/03/21 10:59:40;;;;;;;;;;;;;;;18.96;79.25;99634.47;5054242;28;867;-56
2023/03/21 11:02:17;;;;;;;;;;;;;;;18.51;80.73;99627.50;5053981;28;903;-56
2023/03/21 11:04:45;;;;;;;;;;;;;;;18.49;80.74;99629.97;5052898;28;878;-56
2023/03/21 11:07:13;;;;;;;;;;;;;;;18.77;80.25;99631.59;5053926;28;887;-56
2023/03/21 11:09:49;;;;;;;;;;;;;;;19.14;79.00;99623.31;5059458;28;1206;-56
2023/03/21 11:12:39;;;;;;;;;;;;;;;19.40;77.46;99616.63;5093968;28;807;-56
2023/03/21 11:15:25;;;;;;;;;;;;;;;19.22;71.06;99615.34;5094543;28;831;-56
2023/03/21 11:17:52;;;;;;;;;;;;;;;19.38;70.83;99617.84;5093877;28;1975;-56
2023/03/21 11:20:19;;;;;;;;;;;;;;;19.43;70.63;99610.06;5075716;28;1481;-56
2023/03/21 11:22:46;;;;;;;;;;;;;;;19.23;70.63;99608.53;5093926;28;871;-56
2023/03/21 11:25:49;;;;;;;;;;;;;;;18.89;70.87;99604.75;5093736;28;851;-56
2023/03/21 11:28:23;;;;;;;;;;;;;;;19.15;71.61;99596.06;5011711;28;1261;-56
2023/03/21 11:30:55;;;;;;;;;;;;;;;19.36;70.93;99589.50;5011618;28;973;-56
2023/03/21 11:33:26;;;;;;;;;;;;;;;19.44;69.39;99592.78;5011643;28;821;-56
2023/03/21 11:36:02;;;;;;;;;;;;;;;19.47;69.36;99585.47;5011404;28;1890;-56
2023/03/21 11:38:31;;;;;;;;;;;;;;;19.34;67.37;99589.19;5011440;28;816;-56
2023/03/21 11:41:00;;;;;;;;;;;;;;;19.33;68.01;99581.25;5011419;28;895;-56
2023/03/21 11:43:28;;;;;;;;;;;;;;;19.77;67.51;99566.91;5011755;28;1034;-56
2023/03/21 11:46:13;;;;;;;;;;;;;;;20.08;66.03;99571.44;5011573;28;816;-56
2023/03/21 11:48:42;;;;;;;;;;;;;;;20.74;64.17;99573.47;5011297;28;925;-56
2023/03/21 11:51:22;;;;;;;;;;;;;;;20.89;63.06;99560.28;5011539;28;816;-56
2023/03/21 11:53:55;;;;;;;;;;;;;;;20.80;62.80;99566.75;5011228;28;828;-56
2023/03/21 11:56:43;;;;;;;;;;;;;;;20.48;63.28;99561.91;5011074;28;1890;-56
2023/03/21 11:59:37;;;;;;;;;;;;;;;20.08;64.25;99561.03;5011136;28;796;-56
2023/03/21 12:02:13;;;;;;;;;;;;;;;19.83;65.03;99565.00;5040585;28;1271;-56
2023/03/21 12:05:01;;;;;;;;;;;;;;;19.55;64.59;99567.84;5093075;28;811;-56
2023/03/21 12:07:30;;;;;;;;;;;;;;;19.27;65.75;99569.91;5092898;28;855;-56
2023/03/21 12:10:20;;;;;;;;;;;;;;;18.98;66.47;99573.94;5092923;28;1352;-56
2023/03/21 12:12:46;;;;;;;;;;;;;;;18.89;67.35;99573.19;5082305;28;1153;-56
2023/03/21 12:15:25;;;;;;;;;;;;;;;18.76;66.84;99571.25;5092813;28;792;-56
2023/03/21 12:18:10;;;;;;;;;;;;;;;18.55;67.07;99583.34;5092783;28;1942;-56
2023/03/21 12:20:53;;;;;;;;;;;;;;;18.54;67.01;99573.38;5092820;28;811;-56
2023/03/21 12:23:22;;;;;;;;;;;;;;;18.43;67.18;99573.06;5093098;28;831;-56
2023/03/21 12:26:15;;;;;;;;;;;;;;;18.36;68.18;99563.72;5092704;28;862;-56
2023/03/21 12:29:06;;;;;;;;;;;;;;;18.64;67.89;99558.19;5089085;28;1152;-56
2023/03/21 12:31:56;;;;;;;;;;;;;;;18.81;66.53;99557.94;5092500;28;886;-56
2023/03/21 12:34:32;;;;;;;;;;;;;;;18.76;66.40;99554.47;5092628;28;895;-56
2023/03/21 12:37:09;;;;;;;;;;;;;;;18.84;65.94;99554.97;5092254;28;1906;-56
2023/03/21 12:39:38;;;;;;;;;;;;;;;18.81;66.22;99544.69;5092427;28;882;-56
2023/03/21 12:42:07;;;;;;;;;;;;;;;18.71;66.56;99545.91;5092266;28;882;-56
2023/03/21 12:44:38;;;;;;;;;;;;;;;18.75;66.34;99538.94;5092297;28;799;-56
2023/03/21 12:47:08;;;;;;;;;;;;;;;18.77;65.67;99524.44;5092189;28;862;-56
2023/03/21 12:49:37;;;;;;;;;;;;;;;18.68;65.78;99527.25;5092760;28;819;-56
2023/03/21 12:52:10;;;;;;;;;;;;;;;18.59;65.97;99527.25;5092539;28;851;-56
2023/03/21 12:54:43;;;;;;;;;;;;;;;18.61;66.08;99533.16;5092098;28;839;-56
2023/03/21 12:57:22;;;;;;;;;;;;;;;18.57;66.05;99539.66;5092023;28;1882;-56
2023/03/21 12:59:58;;;;;;;;;;;;;;;18.45;66.07;99529.38;5092014;28;852;-56
2023/03/21 13:02:42;;;;;;;;;;;;;;;18.12;67.77;99529.16;5091985;28;856;-56
2023/03/21 13:05:26;;;;;;;;;;;;;;;17.81;70.10;99529.91;5091923;28;1045;-56
2023/03/21 13:08:04;;;;;;;;;;;;;;;17.78;71.07;99530.84;5091688;28;946;-56
2023/03/21 13:10:32;;;;;;;;;;;;;;;17.75;72.15;99524.16;5091552;28;1232;-56
2023/03/21 13:13:06;;;;;;;;;;;;;;;17.83;73.01;99516.28;5091816;28;843;-56
2023/03/21 13:15:38;;;;;;;;;;;;;;;17.70;73.09;99512.78;5091774;28;848;-56
2023/03/21 13:18:23;;;;;;;;;;;;;;;17.39;74.52;99521.16;5091747;28;1910;-56
2023/03/21 13:20:54;;;;;;;;;;;;;;;17.11;74.93;99516.16;5091684;28;875;-56
2023/03/21 13:23:22;;;;;;;;;;;;;;;16.98;75.61;99514.66;5091586;28;943;-56
2023/03/21 13:25:50;;;;;;;;;;;;;;;16.84;75.35;99513.94;5091651;28;823;-56
2023/03/21 13:28:20;;;;;;;;;;;;;;;16.68;76.68;99512.06;5090979;28;831;-56
2023/03/21 13:30:47;;;;;;;;;;;;;;;16.64;76.78;99511.41;5073533;28;1228;-56
2023/03/21 13:33:18;;;;;;;;;;;;;;;16.84;76.58;99502.78;5091612;28;832;-56
2023/03/21 13:35:52;;;;;;;;;;;;;;;16.88;76.11;99494.28;5091724;28;1885;-56
2023/03/21 13:38:25;;;;;;;;;;;;;;;16.90;75.71;99484.22;5091501;28;835;-56
2023/03/21 13:41:10;;;;;;;;;;;;;;;17.02;75.69;99493.75;5091500;28;867;-56
2023/03/21 13:43:55;;;;;;;;;;;;;;;16.83;75.49;99492.81;5091485;28;875;-57
2023/03/21 13:46:24;;;;;;;;;;;;;;;16.96;76.11;99494.78;5091628;28;851;-57
2023/03/21 13:48:55;;;;;;;;;;;;;;;16.94;74.99;99493.25;5091391;28;867;-56
2023/03/21 13:51:31;;;;;;;;;;;;;;;17.16;75.20;99491.69;5091399;28;871;-57
2023/03/21 13:54:03;;;;;;;;;;;;;;;16.97;75.37;99493.56;5091430;28;859;-57
2023/03/21 13:56:50;;;;;;;;;;;;;;;16.56;76.88;99493.38;5091256;28;1937;-56
2023/03/21 13:59:16;;;;;;;;;;;;;;;15.93;80.25;99487.44;5091403;28;827;-57
2023/03/21 14:02:01;;;;;;;;;;;;;;;15.30;83.48;99486.16;5091384;28;882;-56